createdAt,value
2022-08-07T00:00:18.530Z,21.45
2022-08-07T00:02:46.137Z,21.37
2022-08-07T00:05:13.715Z,21.33
2022-08-07T00:07:41.747Z,21.41
2022-08-07T00:10:26.099Z,21.32
2022-08-07T00:12:59.825Z,21.34
2022-08-07T00:15:37.982Z,21.28
2022-08-07T00:18:19.788Z,21.36
2022-08-07T00:20:54.053Z,21.44
2022-08-07T00:23:22.059Z,21.39
2022-08-07T00:26:00.381Z,21.48
2022-08-07T00:28:34.283Z,21.48
2022-08-07T00:31:12.710Z,21.52
2022-08-07T00:33:46.655Z,21.56
2022-08-07T00:36:15.370Z,21.58
2022-08-07T00:38:44.492Z,21.61
2022-08-07T00:41:14.460Z,21.64
2022-08-07T00:44:00.388Z,21.61
2022-08-07T00:46:32.808Z,21.65
2022-08-07T00:49:03.464Z,21.66
2022-08-07T00:51:58.499Z,21.62
2022-08-07T00:54:20.027Z,21.60
2022-08-07T00:56:49.937Z,21.64
2022-08-07T00:59:20.158Z,21.68
2022-08-07T01:01:59.879Z,21.68
2022-08-07T01:04:27.250Z,21.74
2022-08-07T01:06:58.051Z,21.74
2022-08-07T01:10:04.635Z,21.77
2022-08-07T01:12:30.208Z,21.77
2022-08-07T01:15:00.992Z,21.82
2022-08-07T01:17:30.658Z,21.80
2022-08-07T01:20:05.131Z,21.85
2022-08-07T01:22:34.531Z,21.85
2022-08-07T01:25:05.174Z,21.86
2022-08-07T01:27:51.595Z,21.84
2022-08-07T01:30:19.812Z,21.84
2022-08-07T01:32:55.654Z,21.84
2022-08-07T01:35:53.487Z,21.86
2022-08-07T01:38:25.822Z,21.83
2022-08-07T01:41:03.693Z,21.84
2022-08-07T01:43:38.096Z,21.84
2022-08-07T01:46:08.402Z,21.86
2022-08-07T01:48:47.540Z,21.86
2022-08-07T01:52:01.087Z,21.77
2022-08-07T01:54:36.535Z,21.74
2022-08-07T01:57:24.378Z,21.65
2022-08-07T01:59:57.971Z,21.54
2022-08-07T02:03:18.041Z,21.60
2022-08-07T02:05:43.417Z,21.58
2022-08-07T02:08:20.892Z,21.54
2022-08-07T02:10:55.257Z,21.56
2022-08-07T02:13:57.495Z,21.53
2022-08-07T02:16:19.773Z,21.56
2022-08-07T02:18:51.151Z,21.57
2022-08-07T02:21:19.733Z,21.56
2022-08-07T02:23:49.295Z,21.59
2022-08-07T02:26:33.003Z,21.59
2022-08-07T02:29:05.294Z,21.63
2022-08-07T02:31:42.813Z,21.44
2022-08-07T02:34:17.950Z,21.32
2022-08-07T02:36:52.371Z,21.26
2022-08-07T02:39:43.344Z,21.31
2022-08-07T02:42:16.281Z,21.33
2022-08-07T02:44:50.131Z,21.33
2022-08-07T02:47:23.743Z,21.40
2022-08-07T02:50:00.206Z,21.39
2022-08-07T02:52:44.281Z,21.40
2022-08-07T02:55:27.879Z,21.43
2022-08-07T02:58:13.012Z,21.39
2022-08-07T03:00:47.062Z,21.42
2022-08-07T03:03:20.981Z,21.41
2022-08-07T03:05:53.808Z,21.45
2022-08-07T03:08:26.890Z,21.43
2022-08-07T03:10:59.893Z,21.41
2022-08-07T03:13:38.721Z,21.40
2022-08-07T03:16:09.773Z,21.42
2022-08-07T03:18:40.581Z,21.41
2022-08-07T03:21:12.813Z,21.38
2022-08-07T03:24:18.359Z,21.34
2022-08-07T03:26:42.898Z,21.33
2022-08-07T03:29:21.463Z,21.28
2022-08-07T03:31:51.773Z,21.12
2022-08-07T03:34:22.862Z,21.10
2022-08-07T03:36:58.372Z,21.04
2022-08-07T03:39:59.948Z,21.03
2022-08-07T03:42:20.060Z,20.90
2022-08-07T03:44:53.576Z,20.85
2022-08-07T03:47:29.602Z,20.81
2022-08-07T03:50:23.161Z,20.87
2022-08-07T03:52:54.181Z,20.86
2022-08-07T03:55:22.773Z,20.90
2022-08-07T03:59:05.452Z,20.93
2022-08-07T04:00:46.244Z,20.94
2022-08-07T04:03:21.532Z,21.01
2022-08-07T04:05:51.532Z,21.02
2022-08-07T04:08:26.852Z,21.03
2022-08-07T04:12:20.882Z,21.07
2022-08-07T04:14:10.878Z,21.10
2022-08-07T04:16:35.492Z,21.06
2022-08-07T04:19:15.019Z,20.99
2022-08-07T04:21:59.077Z,20.86
2022-08-07T04:24:34.308Z,20.88
2022-08-07T04:27:15.325Z,20.86
2022-08-07T04:30:01.229Z,20.69
2022-08-07T04:32:48.218Z,20.74
2022-08-07T04:35:27.213Z,20.76
2022-08-07T04:38:08.150Z,20.77
2022-08-07T04:40:51.812Z,20.80
2022-08-07T04:44:13.118Z,20.80
2022-08-07T04:46:59.530Z,20.79
2022-08-07T04:49:57.709Z,20.84
2022-08-07T04:53:04.573Z,20.87
2022-08-07T04:58:07.320Z,20.86
2022-08-07T04:59:16.886Z,20.81
2022-08-07T05:01:40.646Z,20.78
2022-08-07T05:04:24.573Z,20.84
2022-08-07T05:07:19.552Z,20.85
2022-08-07T05:10:27.102Z,20.83
2022-08-07T05:13:01.452Z,20.88
2022-08-07T05:15:47.653Z,20.70
2022-08-07T05:18:23.973Z,20.55
2022-08-07T05:21:12.812Z,20.56
2022-08-07T05:23:52.093Z,20.47
2022-08-07T05:26:24.039Z,20.42
2022-08-07T05:29:04.621Z,20.39
2022-08-07T05:31:38.822Z,20.48
2022-08-07T05:34:16.115Z,20.59
2022-08-07T05:36:54.113Z,20.62
2022-08-07T05:40:06.664Z,20.47
2022-08-07T05:42:33.299Z,20.40
2022-08-07T05:45:14.402Z,20.41
2022-08-07T05:48:01.141Z,20.38
2022-08-07T05:50:34.453Z,20.46
2022-08-07T05:53:04.135Z,20.50
2022-08-07T05:56:02.774Z,20.58
2022-08-07T05:58:36.032Z,20.74
2022-08-07T06:01:10.766Z,20.91
2022-08-07T06:03:53.378Z,21.04
2022-08-07T06:06:29.893Z,21.17
2022-08-07T06:09:05.167Z,21.20
2022-08-07T06:11:38.060Z,21.49
2022-08-07T06:14:11.852Z,21.55
2022-08-07T06:16:50.241Z,21.67
2022-08-07T06:19:57.799Z,21.73
2022-08-07T06:22:23.009Z,21.89
2022-08-07T06:25:03.039Z,21.96
2022-08-07T06:27:54.468Z,22.10
2022-08-07T06:30:24.200Z,22.20
2022-08-07T06:33:04.373Z,22.27
2022-08-07T06:35:45.910Z,22.36
2022-08-07T06:38:20.572Z,22.37
2022-08-07T06:40:53.485Z,22.22
2022-08-07T06:43:25.253Z,22.36
2022-08-07T06:46:12.574Z,22.37
2022-08-07T06:48:44.714Z,22.45
2022-08-07T06:51:31.348Z,22.39
2022-08-07T06:55:33.578Z,22.28
2022-08-07T06:56:56.812Z,22.27
2022-08-07T07:00:13.918Z,22.43
2022-08-07T07:02:53.391Z,22.29
2022-08-07T07:05:14.549Z,22.15
2022-08-07T07:08:06.570Z,22.44
2022-08-07T07:10:37.373Z,22.53
2022-08-07T07:13:13.621Z,22.70
2022-08-07T07:15:51.438Z,22.84
2022-08-07T07:18:47.743Z,22.96
2022-08-07T07:21:20.501Z,22.82
2022-08-07T07:24:09.952Z,23.00
2022-08-07T07:26:38.333Z,23.15
2022-08-07T07:29:39.485Z,23.30
2022-08-07T07:32:06.253Z,23.26
2022-08-07T07:34:36.852Z,23.43
2022-08-07T07:37:21.657Z,23.55
2022-08-07T07:40:00.885Z,23.63
2022-08-07T07:42:32.748Z,23.74
2022-08-07T07:45:04.574Z,23.71
2022-08-07T07:47:51.751Z,23.79
2022-08-07T07:50:36.409Z,23.95
2022-08-07T07:53:20.258Z,23.98
2022-08-07T07:56:00.661Z,24.09
2022-08-07T07:58:40.198Z,24.21
2022-08-07T08:02:01.930Z,24.19
2022-08-07T08:04:10.039Z,24.37
2022-08-07T08:06:52.180Z,24.48
2022-08-07T08:09:29.493Z,24.49
2022-08-07T08:12:02.273Z,24.53
2022-08-07T08:14:37.032Z,24.63
2022-08-07T08:17:56.094Z,24.73
2022-08-07T08:20:18.119Z,24.83
2022-08-07T08:23:11.372Z,24.98
2022-08-07T08:26:06.825Z,25.17
2022-08-07T08:28:43.409Z,25.36
2022-08-07T08:31:22.822Z,25.36
2022-08-07T08:33:59.413Z,25.54
2022-08-07T08:36:32.572Z,25.56
2022-08-07T08:39:03.128Z,25.63
2022-08-07T08:41:57.268Z,25.69
2022-08-07T08:44:31.494Z,25.78
2022-08-07T08:47:47.233Z,25.72
2022-08-07T08:50:38.889Z,25.81
2022-08-07T08:53:39.493Z,26.06
2022-08-07T08:56:17.415Z,26.20
2022-08-07T08:58:58.099Z,26.27
2022-08-07T09:01:29.924Z,26.28
2022-08-07T09:04:52.460Z,26.49
2022-08-07T09:07:34.022Z,26.16
2022-08-07T09:10:49.012Z,26.40
2022-08-07T09:13:39.613Z,26.64
2022-08-07T09:16:31.474Z,26.78
2022-08-07T09:19:03.586Z,26.98
2022-08-07T09:22:09.747Z,27.20
2022-08-07T09:25:14.834Z,27.45
2022-08-07T09:28:01.100Z,27.48
2022-08-07T09:30:50.573Z,27.68
2022-08-07T09:34:02.493Z,27.93
2022-08-07T09:36:42.844Z,28.11
2022-08-07T09:39:53.800Z,28.33
2022-08-07T09:42:43.772Z,28.61
2022-08-07T09:47:50.135Z,28.76
2022-08-07T09:48:55.967Z,28.74
2022-08-07T09:52:15.459Z,29.02
2022-08-07T09:55:17.273Z,29.19
2022-08-07T09:58:32.175Z,29.40
2022-08-07T10:01:51.480Z,29.45
2022-08-07T10:04:28.387Z,29.47
2022-08-07T10:07:53.321Z,29.34
2022-08-07T10:11:17.080Z,29.26
2022-08-07T10:14:01.475Z,29.12
2022-08-07T10:16:41.812Z,28.85
2022-08-07T10:19:38.531Z,28.84
2022-08-07T10:22:24.917Z,28.97
2022-08-07T10:25:42.460Z,28.95
2022-08-07T10:28:58.534Z,28.88
2022-08-07T10:31:49.569Z,29.19
2022-08-07T10:34:38.772Z,29.17
2022-08-07T10:37:05.940Z,29.37
2022-08-07T10:40:03.010Z,29.51
2022-08-07T10:42:40.620Z,29.65
2022-08-07T10:45:57.609Z,29.73
2022-08-07T10:48:44.180Z,29.99
2022-08-07T10:51:38.898Z,30.19
2022-08-07T10:54:35.213Z,30.32
2022-08-07T10:57:35.328Z,30.16
2022-08-07T11:00:09.852Z,29.84
2022-08-07T11:14:42.402Z,29.93
2022-08-07T11:16:36.669Z,30.39
2022-08-07T11:19:40.413Z,30.64
2022-08-07T11:22:46.258Z,30.97
2022-08-07T11:25:42.489Z,31.26
2022-08-07T11:28:21.532Z,31.66
2022-08-07T11:30:55.886Z,31.88
2022-08-07T11:33:58.714Z,31.99
2022-08-07T11:36:44.411Z,32.12
2022-08-07T11:39:24.440Z,32.25
2022-08-07T11:42:03.622Z,32.36
2022-08-07T11:44:52.320Z,32.36
2022-08-07T11:47:59.145Z,32.60
2022-08-07T11:50:57.173Z,32.86
2022-08-07T11:53:43.308Z,32.86
2022-08-07T11:57:02.532Z,32.54
2022-08-07T12:00:12.044Z,32.46
2022-08-07T12:02:52.149Z,32.51
2022-08-07T12:05:47.480Z,32.36
2022-08-07T12:08:34.636Z,32.20
2022-08-07T12:11:21.214Z,32.27
2022-08-07T12:14:11.613Z,32.32
2022-08-07T12:17:05.652Z,32.10
2022-08-07T12:20:02.762Z,31.94
2022-08-07T12:22:56.510Z,31.83
2022-08-07T12:26:05.323Z,31.49
2022-08-07T12:29:00.541Z,31.43
2022-08-07T12:32:01.924Z,31.34
2022-08-07T12:34:34.812Z,31.34
2022-08-07T12:37:08.702Z,31.34
2022-08-07T12:39:51.228Z,31.17
2022-08-07T12:42:27.621Z,31.36
2022-08-07T12:44:59.115Z,31.26
2022-08-07T12:47:41.012Z,31.24
2022-08-07T12:50:49.089Z,31.47
2022-08-07T12:54:02.927Z,31.56
2022-08-07T12:56:36.574Z,31.56
2022-08-07T12:59:08.407Z,31.55
2022-08-07T13:02:10.223Z,31.51
2022-08-07T13:06:03.855Z,31.54
2022-08-07T13:08:18.915Z,31.53
2022-08-07T13:11:17.651Z,31.44
2022-08-07T13:14:19.332Z,31.17
2022-08-07T13:17:41.180Z,30.95
2022-08-07T13:20:18.179Z,30.71
2022-08-07T13:23:59.749Z,30.45
2022-08-07T13:26:02.340Z,30.35
2022-08-07T13:28:59.852Z,30.31
2022-08-07T13:31:46.155Z,30.26
2022-08-07T13:34:39.017Z,29.99
2022-08-07T13:37:49.665Z,29.78
2022-08-07T13:40:43.360Z,29.57
2022-08-07T13:43:13.627Z,29.40
2022-08-07T13:46:11.533Z,29.21
2022-08-07T13:48:39.460Z,29.04
2022-08-07T13:51:28.476Z,28.86
2022-08-07T13:54:09.537Z,28.64
2022-08-07T13:56:52.067Z,28.49
2022-08-07T13:59:27.852Z,28.37
2022-08-07T14:02:10.894Z,28.24
2022-08-07T14:04:49.984Z,28.21
2022-08-07T14:07:23.061Z,28.17
2022-08-07T14:10:02.227Z,28.14
2022-08-07T14:12:55.009Z,28.13
2022-08-07T14:15:51.212Z,28.15
2022-08-07T14:18:29.662Z,28.15
2022-08-07T14:22:01.246Z,28.18
2022-08-07T14:24:48.213Z,28.32
2022-08-07T14:28:10.937Z,28.44
2022-08-07T14:32:59.853Z,28.62
2022-08-07T14:35:45.377Z,28.64
2022-08-07T14:38:26.765Z,28.73
2022-08-07T14:44:07.892Z,29.02
2022-08-07T14:46:51.840Z,29.17
2022-08-07T14:49:58.287Z,29.32
2022-08-07T14:52:25.803Z,29.38
2022-08-07T14:54:55.772Z,29.35
2022-08-07T14:57:28.952Z,29.28
2022-08-07T15:00:30.004Z,29.07
2022-08-07T15:03:00.311Z,28.98
2022-08-07T15:08:55.019Z,28.93
2022-08-07T15:14:21.412Z,28.94
2022-08-07T15:17:00.991Z,28.99
2022-08-07T15:19:44.121Z,29.01
2022-08-07T15:22:51.711Z,29.11
2022-08-07T15:25:36.777Z,29.11
2022-08-07T15:28:32.453Z,29.13
2022-08-07T15:31:06.396Z,29.17
2022-08-07T15:33:36.804Z,29.12
2022-08-07T15:36:08.018Z,29.05
2022-08-07T15:38:51.919Z,28.96
2022-08-07T15:42:44.621Z,28.74
2022-08-07T15:44:19.454Z,28.76
2022-08-07T15:46:55.453Z,28.66
2022-08-07T15:50:04.839Z,28.59
2022-08-07T15:52:29.772Z,28.56
2022-08-07T15:55:02.683Z,28.47
2022-08-07T15:57:39.482Z,28.47
2022-08-07T16:00:08.660Z,28.52
2022-08-07T16:02:58.254Z,28.41
2022-08-07T16:05:31.198Z,28.37
2022-08-07T16:08:33.055Z,28.22
2022-08-07T16:10:58.053Z,28.17
2022-08-07T16:13:59.039Z,28.09
2022-08-07T16:16:49.153Z,28.03
2022-08-07T16:19:41.892Z,27.97
2022-08-07T16:22:56.234Z,27.86
2022-08-07T16:25:55.814Z,27.75
2022-08-07T16:30:09.135Z,27.63
2022-08-07T16:32:06.854Z,27.46
2022-08-07T16:35:51.989Z,27.40
2022-08-07T16:39:02.361Z,27.24
2022-08-07T16:41:41.393Z,27.16
2022-08-07T16:45:14.955Z,27.09
2022-08-07T16:49:04.262Z,27.00
2022-08-07T16:52:01.682Z,26.91
2022-08-07T16:55:03.200Z,26.77
2022-08-07T16:58:03.010Z,26.66
2022-08-07T17:00:53.576Z,26.50
2022-08-07T17:03:58.105Z,26.38
2022-08-07T17:06:42.597Z,26.23
2022-08-07T17:10:06.125Z,26.16
2022-08-07T17:12:33.781Z,26.05
2022-08-07T17:15:16.926Z,25.93
2022-08-07T17:17:47.695Z,25.91
2022-08-07T17:20:29.669Z,25.89
2022-08-07T17:23:32.483Z,25.83
2022-08-07T17:26:24.304Z,25.79
2022-08-07T17:30:15.640Z,25.73
2022-08-07T17:32:30.713Z,25.63
2022-08-07T17:35:51.058Z,25.61
2022-08-07T17:38:33.836Z,25.50
2022-08-07T17:41:12.382Z,25.49
2022-08-07T17:44:33.198Z,25.36
2022-08-07T17:47:08.428Z,25.22
2022-08-07T17:49:52.423Z,25.31
2022-08-07T17:52:39.645Z,25.09
2022-08-07T17:55:15.987Z,25.02
2022-08-07T17:58:30.633Z,24.62
2022-08-07T18:01:03.360Z,24.61
2022-08-07T18:04:06.940Z,24.68
2022-08-07T18:06:42.882Z,24.65
2022-08-07T18:09:19.053Z,24.48
2022-08-07T18:12:19.635Z,24.69
2022-08-07T18:15:33.007Z,24.60
2022-08-07T18:18:47.642Z,24.66
2022-08-07T18:21:37.171Z,24.48
2022-08-07T18:24:28.445Z,24.33
2022-08-07T18:27:11.132Z,24.28
2022-08-07T18:30:31.066Z,24.25
2022-08-07T18:33:26.996Z,24.26
2022-08-07T18:36:14.652Z,24.27
2022-08-07T18:40:07.920Z,24.32
2022-08-07T18:42:21.300Z,24.38
2022-08-07T18:45:44.583Z,24.41
2022-08-07T18:48:04.614Z,24.43
2022-08-07T18:50:47.290Z,24.46
2022-08-07T18:53:39.276Z,24.48
2022-08-07T18:56:58.402Z,24.51
2022-08-07T18:59:46.765Z,24.37
2022-08-07T19:02:36.457Z,24.48
2022-08-07T19:05:25.283Z,24.17
2022-08-07T19:08:07.571Z,24.19
2022-08-07T19:10:52.207Z,24.18
2022-08-07T19:13:33.740Z,24.13
2022-08-07T19:17:01.161Z,23.96
2022-08-07T19:19:31.630Z,23.74
2022-08-07T19:22:11.209Z,23.81
2022-08-07T19:24:48.992Z,23.71
2022-08-07T19:28:56.896Z,23.59
2022-08-07T19:31:01.641Z,23.59
2022-08-07T19:33:13.341Z,23.63
2022-08-07T19:35:46.776Z,23.68
2022-08-07T19:38:17.882Z,23.66
2022-08-07T19:40:49.946Z,23.70
2022-08-07T19:43:49.340Z,23.71
2022-08-07T19:46:26.571Z,23.75
2022-08-07T19:49:07.620Z,23.76
2022-08-07T19:51:52.268Z,23.78
2022-08-07T19:54:43.902Z,23.78
2022-08-07T19:58:02.866Z,23.81
2022-08-07T20:00:08.782Z,23.80
2022-08-07T20:02:50.774Z,23.78
2022-08-07T20:05:28.212Z,23.80
2022-08-07T20:08:12.653Z,23.79
2022-08-07T20:10:54.309Z,23.79
2022-08-07T20:13:47.654Z,23.76
2022-08-07T20:16:34.822Z,23.75
2022-08-07T20:19:10.860Z,23.70
2022-08-07T20:21:48.485Z,23.62
2022-08-07T20:24:23.412Z,23.62
2022-08-07T20:26:54.888Z,23.62
2022-08-07T20:29:48.274Z,23.56
2022-08-07T20:32:42.213Z,23.54
2022-08-07T20:35:26.493Z,23.52
2022-08-07T20:37:59.173Z,23.51
2022-08-07T20:40:34.621Z,23.48
2022-08-07T20:43:09.730Z,23.43
2022-08-07T20:46:27.531Z,23.38
2022-08-07T20:49:54.075Z,23.39
2022-08-07T20:51:31.093Z,23.36
2022-08-07T20:54:12.152Z,23.39
2022-08-07T20:56:48.951Z,23.34
2022-08-07T21:00:05.125Z,23.36
2022-08-07T21:02:38.402Z,23.35
2022-08-07T21:05:16.526Z,23.35
2022-08-07T21:07:49.465Z,23.36
2022-08-07T21:10:31.435Z,23.33
2022-08-07T21:13:03.413Z,23.34
2022-08-07T21:15:58.360Z,23.36
2022-08-07T21:18:29.404Z,23.37
2022-08-07T21:21:01.893Z,23.37
2022-08-07T21:23:52.013Z,23.41
2022-08-07T21:26:32.133Z,23.39
2022-08-07T21:29:18.940Z,23.39
2022-08-07T21:32:47.840Z,23.40
2022-08-07T21:35:34.600Z,23.41
2022-08-07T21:38:27.955Z,23.42
2022-08-07T21:41:09.569Z,23.39
2022-08-07T21:44:14.712Z,23.33
2022-08-07T21:47:05.053Z,23.33
2022-08-07T21:50:08.692Z,23.28
2022-08-07T21:52:54.754Z,23.28
2022-08-07T21:55:29.800Z,23.27
2022-08-07T21:58:32.308Z,23.30
2022-08-07T22:01:08.494Z,23.29
2022-08-07T22:03:48.134Z,23.25
2022-08-07T22:06:30.040Z,23.27
2022-08-07T22:09:10.944Z,23.27
2022-08-07T22:11:53.013Z,23.24
2022-08-07T22:14:59.566Z,23.26
2022-08-07T22:17:36.253Z,23.25
2022-08-07T22:20:10.789Z,23.26
2022-08-07T22:22:59.413Z,23.26
2022-08-07T22:25:39.934Z,23.25
2022-08-07T22:28:31.408Z,23.26
2022-08-07T22:31:56.033Z,23.26
2022-08-07T22:34:55.133Z,23.20
2022-08-07T22:38:02.748Z,23.19
2022-08-07T22:40:42.212Z,23.19
2022-08-07T22:43:18.061Z,23.18
2022-08-07T22:46:42.851Z,23.20
2022-08-07T22:49:20.893Z,23.20
2022-08-07T22:52:07.174Z,23.19
2022-08-07T22:54:49.011Z,23.17
2022-08-07T22:57:41.988Z,23.16
2022-08-07T23:00:28.525Z,23.17
2022-08-07T23:03:18.211Z,23.14
2022-08-07T23:06:18.167Z,23.11
2022-08-07T23:10:03.772Z,23.12
2022-08-07T23:12:32.766Z,23.09
2022-08-07T23:15:02.094Z,23.10
2022-08-07T23:17:47.652Z,23.09
2022-08-07T23:20:40.646Z,23.06
2022-08-07T23:24:05.781Z,23.04
2022-08-07T23:26:25.244Z,22.99
2022-08-07T23:29:43.783Z,22.98
2022-08-07T23:34:35.253Z,22.96
2022-08-07T23:36:22.921Z,22.93
2022-08-07T23:39:08.618Z,22.93
2022-08-07T23:42:21.935Z,22.89
2022-08-07T23:45:15.346Z,22.87
2022-08-07T23:48:09.174Z,22.81
2022-08-07T23:51:00.802Z,22.81
2022-08-07T23:53:49.735Z,22.81
2022-08-07T23:56:53.612Z,22.78
